Terminal Aerodrome Forecast
Issued by NWS Newport/Morehead City, NC

Home | Current Version | Previous Version | Text Only | Print | Product List | Glossary Off
Versions: 1 2 3 4 5 6 7 8 9 10 11 12 13 14 15 16

844
FTUS42 KMHX 121722
TAFEWN
TAF
KEWN 121722Z 1218/1318 07005KT 3SM -RA BR BKN030
     FM122100 02005KT 3SM -FZRA BR OVC007
     FM130000 VRB04KT 4SM BR OVC020
     FM130800 30005KT P6SM SCT010
     FM131300 32012G21KT P6SM SKC=

USA.gov is the U.S. government's official web portal to all federal, state and local government web resources and services.